sensor_id;sensor_type;location;lat;lon;timestamp;temperature;humidity
28520;DHT22;15732;48.534;20.382;2023-08-01T00:00:52;19.10;99.90
28520;DHT22;15732;48.534;20.382;2023-08-01T00:03:19;19.10;99.90
28520;DHT22;15732;48.534;20.382;2023-08-01T00:05:46;19.10;99.90
28520;DHT22;15732;48.534;20.382;2023-08-01T00:08:18;19.10;99.90
28520;DHT22;15732;48.534;20.382;2023-08-01T00:10:49;19.10;99.90
28520;DHT22;15732;48.534;20.382;2023-08-01T00:13:20;19.10;99.90
28520;DHT22;15732;48.534;20.382;2023-08-01T00:19:05;19.00;99.90
28520;DHT22;15732;48.534;20.382;2023-08-01T00:21:32;19.00;99.90
28520;DHT22;15732;48.534;20.382;2023-08-01T00:24:00;19.00;99.90
28520;DHT22;15732;48.534;20.382;2023-08-01T00:26:28;19.00;99.90
28520;DHT22;15732;48.534;20.382;2023-08-01T00:28:55;19.00;99.90
28520;DHT22;15732;48.534;20.382;2023-08-01T00:31:23;19.00;99.90
28520;DHT22;15732;48.534;20.382;2023-08-01T00:33:50;19.00;99.90
28520;DHT22;15732;48.534;20.382;2023-08-01T00:36:17;19.00;99.90
28520;DHT22;15732;48.534;20.382;2023-08-01T00:38:45;19.00;99.90
28520;DHT22;15732;48.534;20.382;2023-08-01T00:41:13;19.00;99.90
28520;DHT22;15732;48.534;20.382;2023-08-01T00:44:04;18.90;99.90
28520;DHT22;15732;48.534;20.382;2023-08-01T00:46:33;18.90;99.90
28520;DHT22;15732;48.534;20.382;2023-08-01T00:48:59;18.80;99.90
28520;DHT22;15732;48.534;20.382;2023-08-01T00:51:31;18.80;99.90
28520;DHT22;15732;48.534;20.382;2023-08-01T00:54:00;18.80;99.90
28520;DHT22;15732;48.534;20.382;2023-08-01T00:56:28;18.80;99.90
28520;DHT22;15732;48.534;20.382;2023-08-01T00:58:55;18.80;99.90
28520;DHT22;15732;48.534;20.382;2023-08-01T01:01:23;18.70;99.90
28520;DHT22;15732;48.534;20.382;2023-08-01T01:03:50;18.70;99.90
28520;DHT22;15732;48.534;20.382;2023-08-01T01:06:45;18.60;99.90
28520;DHT22;15732;48.534;20.382;2023-08-01T01:09:15;18.60;99.90
28520;DHT22;15732;48.534;20.382;2023-08-01T01:11:42;18.60;99.90
28520;DHT22;15732;48.534;20.382;2023-08-01T01:14:09;18.60;99.90
28520;DHT22;15732;48.534;20.382;2023-08-01T01:16:37;18.50;99.90
28520;DHT22;15732;48.534;20.382;2023-08-01T01:19:07;18.50;99.90
28520;DHT22;15732;48.534;20.382;2023-08-01T01:21:39;18.50;99.90
28520;DHT22;15732;48.534;20.382;2023-08-01T01:24:08;18.50;99.90
28520;DHT22;15732;48.534;20.382;2023-08-01T01:26:41;18.50;99.90
28520;DHT22;15732;48.534;20.382;2023-08-01T01:29:09;18.50;99.90
28520;DHT22;15732;48.534;20.382;2023-08-01T01:31:36;18.50;99.90
28520;DHT22;15732;48.534;20.382;2023-08-01T01:34:03;18.50;99.90
28520;DHT22;15732;48.534;20.382;2023-08-01T01:36:31;18.40;99.90
28520;DHT22;15732;48.534;20.382;2023-08-01T01:38:58;18.40;99.90
28520;DHT22;15732;48.534;20.382;2023-08-01T01:41:25;18.40;99.90
28520;DHT22;15732;48.534;20.382;2023-08-01T01:43:56;18.30;99.90
28520;DHT22;15732;48.534;20.382;2023-08-01T01:46:24;18.20;99.90
28520;DHT22;15732;48.534;20.382;2023-08-01T01:48:51;18.20;99.90
28520;DHT22;15732;48.534;20.382;2023-08-01T01:51:20;18.20;99.90
28520;DHT22;15732;48.534;20.382;2023-08-01T01:53:52;18.10;99.90
28520;DHT22;15732;48.534;20.382;2023-08-01T01:56:23;18.10;99.90
28520;DHT22;15732;48.534;20.382;2023-08-01T01:58:54;18.10;99.90
28520;DHT22;15732;48.534;20.382;2023-08-01T02:01:25;18.20;99.90
28520;DHT22;15732;48.534;20.382;2023-08-01T02:03:52;18.20;99.90
28520;DHT22;15732;48.534;20.382;2023-08-01T02:06:20;18.20;99.90
28520;DHT22;15732;48.534;20.382;2023-08-01T02:08:50;18.20;99.90
28520;DHT22;15732;48.534;20.382;2023-08-01T02:11:17;18.20;99.90
28520;DHT22;15732;48.534;20.382;2023-08-01T02:13:45;18.20;99.90
28520;DHT22;15732;48.534;20.382;2023-08-01T02:16:12;18.20;99.90
28520;DHT22;15732;48.534;20.382;2023-08-01T02:18:42;18.20;99.90
28520;DHT22;15732;48.534;20.382;2023-08-01T02:21:10;18.20;99.90
28520;DHT22;15732;48.534;20.382;2023-08-01T02:23:37;18.10;99.90
28520;DHT22;15732;48.534;20.382;2023-08-01T02:26:04;18.10;99.90
28520;DHT22;15732;48.534;20.382;2023-08-01T02:28:34;18.10;99.90
28520;DHT22;15732;48.534;20.382;2023-08-01T02:31:01;18.10;99.90
28520;DHT22;15732;48.534;20.382;2023-08-01T02:33:28;18.10;99.90
28520;DHT22;15732;48.534;20.382;2023-08-01T02:35:56;18.10;99.90
28520;DHT22;15732;48.534;20.382;2023-08-01T02:38:23;18.10;99.90
28520;DHT22;15732;48.534;20.382;2023-08-01T02:40:50;18.00;99.90
28520;DHT22;15732;48.534;20.382;2023-08-01T02:43:18;18.00;99.90
28520;DHT22;15732;48.534;20.382;2023-08-01T02:45:45;17.90;99.90
28520;DHT22;15732;48.534;20.382;2023-08-01T02:48:16;17.90;99.90
28520;DHT22;15732;48.534;20.382;2023-08-01T02:50:43;17.90;99.90
28520;DHT22;15732;48.534;20.382;2023-08-01T02:53:10;18.00;99.90
28520;DHT22;15732;48.534;20.382;2023-08-01T02:55:41;17.90;99.90
28520;DHT22;15732;48.534;20.382;2023-08-01T02:58:08;17.90;99.90
28520;DHT22;15732;48.534;20.382;2023-08-01T03:00:38;17.90;99.90
28520;DHT22;15732;48.534;20.382;2023-08-01T03:03:07;17.80;99.90
28520;DHT22;15732;48.534;20.382;2023-08-01T03:05:38;17.80;99.90
28520;DHT22;15732;48.534;20.382;2023-08-01T03:08:05;17.80;99.90
28520;DHT22;15732;48.534;20.382;2023-08-01T03:10:33;17.80;99.90
28520;DHT22;15732;48.534;20.382;2023-08-01T03:13:00;17.80;99.90
28520;DHT22;15732;48.534;20.382;2023-08-01T03:15:31;17.80;99.90
28520;DHT22;15732;48.534;20.382;2023-08-01T03:18:02;17.80;99.90
28520;DHT22;15732;48.534;20.382;2023-08-01T03:20:34;17.80;99.90
28520;DHT22;15732;48.534;20.382;2023-08-01T03:23:01;17.70;99.90
28520;DHT22;15732;48.534;20.382;2023-08-01T03:25:28;17.70;99.90
28520;DHT22;15732;48.534;20.382;2023-08-01T03:27:56;17.70;99.90
28520;DHT22;15732;48.534;20.382;2023-08-01T03:30:24;17.70;99.90
28520;DHT22;15732;48.534;20.382;2023-08-01T03:32:52;17.60;99.90
28520;DHT22;15732;48.534;20.382;2023-08-01T03:35:19;17.60;99.90
28520;DHT22;15732;48.534;20.382;2023-08-01T03:37:50;17.60;99.90
28520;DHT22;15732;48.534;20.382;2023-08-01T03:40:17;17.60;99.90
28520;DHT22;15732;48.534;20.382;2023-08-01T03:42:46;17.60;99.90
28520;DHT22;15732;48.534;20.382;2023-08-01T03:45:13;17.60;99.90
28520;DHT22;15732;48.534;20.382;2023-08-01T03:47:41;17.60;99.90
28520;DHT22;15732;48.534;20.382;2023-08-01T03:50:12;17.60;99.90
28520;DHT22;15732;48.534;20.382;2023-08-01T03:52:40;17.60;99.90
28520;DHT22;15732;48.534;20.382;2023-08-01T03:55:08;17.60;99.90
28520;DHT22;15732;48.534;20.382;2023-08-01T03:57:35;17.60;99.90
28520;DHT22;15732;48.534;20.382;2023-08-01T04:00:05;17.70;99.90
28520;DHT22;15732;48.534;20.382;2023-08-01T04:02:40;17.60;99.90
28520;DHT22;15732;48.534;20.382;2023-08-01T04:05:08;17.60;99.90
28520;DHT22;15732;48.534;20.382;2023-08-01T04:07:39;17.60;99.90
28520;DHT22;15732;48.534;20.382;2023-08-01T04:10:07;17.60;99.90
28520;DHT22;15732;48.534;20.382;2023-08-01T04:12:35;17.70;99.90
28520;DHT22;15732;48.534;20.382;2023-08-01T04:15:04;17.70;99.90
28520;DHT22;15732;48.534;20.382;2023-08-01T04:17:32;17.80;99.90
28520;DHT22;15732;48.534;20.382;2023-08-01T04:19:59;17.80;99.90
28520;DHT22;15732;48.534;20.382;2023-08-01T04:22:27;17.80;99.90
28520;DHT22;15732;48.534;20.382;2023-08-01T04:24:58;17.60;99.90
28520;DHT22;15732;48.534;20.382;2023-08-01T04:27:25;17.40;99.90
28520;DHT22;15732;48.534;20.382;2023-08-01T04:29:52;17.40;99.90
28520;DHT22;15732;48.534;20.382;2023-08-01T04:32:21;17.20;99.90
28520;DHT22;15732;48.534;20.382;2023-08-01T04:34:48;17.10;99.90
28520;DHT22;15732;48.534;20.382;2023-08-01T04:37:16;16.90;99.90
28520;DHT22;15732;48.534;20.382;2023-08-01T04:39:43;16.80;99.90
28520;DHT22;15732;48.534;20.382;2023-08-01T04:42:10;16.70;99.90
28520;DHT22;15732;48.534;20.382;2023-08-01T04:44:38;16.60;99.90
28520;DHT22;15732;48.534;20.382;2023-08-01T04:47:05;16.60;99.90
28520;DHT22;15732;48.534;20.382;2023-08-01T04:49:32;16.40;99.90
28520;DHT22;15732;48.534;20.382;2023-08-01T04:52:04;16.50;99.90
28520;DHT22;15732;48.534;20.382;2023-08-01T04:54:32;16.60;99.90
28520;DHT22;15732;48.534;20.382;2023-08-01T04:57:00;16.50;99.90
28520;DHT22;15732;48.534;20.382;2023-08-01T04:59:27;16.60;99.90
28520;DHT22;15732;48.534;20.382;2023-08-01T05:01:58;16.60;99.90
28520;DHT22;15732;48.534;20.382;2023-08-01T05:04:26;16.60;99.90
28520;DHT22;15732;48.534;20.382;2023-08-01T05:06:53;16.60;99.90
28520;DHT22;15732;48.534;20.382;2023-08-01T05:09:24;16.60;99.90
28520;DHT22;15732;48.534;20.382;2023-08-01T05:11:51;16.70;99.90
28520;DHT22;15732;48.534;20.382;2023-08-01T05:14:18;16.80;99.90
28520;DHT22;15732;48.534;20.382;2023-08-01T05:16:49;16.90;99.90
28520;DHT22;15732;48.534;20.382;2023-08-01T05:19:17;17.00;99.90
28520;DHT22;15732;48.534;20.382;2023-08-01T05:21:44;17.10;99.90
28520;DHT22;15732;48.534;20.382;2023-08-01T05:24:12;17.10;99.90
28520;DHT22;15732;48.534;20.382;2023-08-01T05:26:40;17.30;99.90
28520;DHT22;15732;48.534;20.382;2023-08-01T05:29:07;17.30;99.90
28520;DHT22;15732;48.534;20.382;2023-08-01T05:31:38;17.40;99.90
28520;DHT22;15732;48.534;20.382;2023-08-01T05:34:06;17.40;99.90
28520;DHT22;15732;48.534;20.382;2023-08-01T05:36:33;17.40;99.90
28520;DHT22;15732;48.534;20.382;2023-08-01T05:39:00;17.40;99.90
28520;DHT22;15732;48.534;20.382;2023-08-01T05:41:27;17.40;99.90
28520;DHT22;15732;48.534;20.382;2023-08-01T05:43:55;17.50;99.90
28520;DHT22;15732;48.534;20.382;2023-08-01T05:46:22;17.50;99.90
28520;DHT22;15732;48.534;20.382;2023-08-01T05:48:49;17.60;99.90
28520;DHT22;15732;48.534;20.382;2023-08-01T05:51:20;17.80;99.90
28520;DHT22;15732;48.534;20.382;2023-08-01T05:53:48;17.90;99.90
28520;DHT22;15732;48.534;20.382;2023-08-01T05:56:15;18.20;99.90
28520;DHT22;15732;48.534;20.382;2023-08-01T05:58:42;18.40;99.90
28520;DHT22;15732;48.534;20.382;2023-08-01T06:01:11;18.60;99.90
28520;DHT22;15732;48.534;20.382;2023-08-01T06:03:38;18.80;99.90
28520;DHT22;15732;48.534;20.382;2023-08-01T06:06:06;18.90;99.90
28520;DHT22;15732;48.534;20.382;2023-08-01T06:08:33;19.00;99.90
28520;DHT22;15732;48.534;20.382;2023-08-01T06:11:01;19.10;99.90
28520;DHT22;15732;48.534;20.382;2023-08-01T06:13:28;19.20;99.90
28520;DHT22;15732;48.534;20.382;2023-08-01T06:15:55;19.30;99.90
28520;DHT22;15732;48.534;20.382;2023-08-01T06:18:27;19.30;99.90
28520;DHT22;15732;48.534;20.382;2023-08-01T06:20:58;19.50;99.90
28520;DHT22;15732;48.534;20.382;2023-08-01T06:23:25;19.70;99.90
28520;DHT22;15732;48.534;20.382;2023-08-01T06:25:56;19.90;99.90
28520;DHT22;15732;48.534;20.382;2023-08-01T06:28:24;20.00;99.90
28520;DHT22;15732;48.534;20.382;2023-08-01T06:30:51;20.30;99.90
28520;DHT22;15732;48.534;20.382;2023-08-01T06:33:18;20.40;99.90
28520;DHT22;15732;48.534;20.382;2023-08-01T06:35:46;20.40;99.90
28520;DHT22;15732;48.534;20.382;2023-08-01T06:38:13;20.40;99.90
28520;DHT22;15732;48.534;20.382;2023-08-01T06:40:44;20.40;99.90
28520;DHT22;15732;48.534;20.382;2023-08-01T06:43:11;20.30;99.90
28520;DHT22;15732;48.534;20.382;2023-08-01T06:45:39;20.30;99.90
28520;DHT22;15732;48.534;20.382;2023-08-01T06:48:06;20.30;99.90
28520;DHT22;15732;48.534;20.382;2023-08-01T06:50:33;20.30;99.90
28520;DHT22;15732;48.534;20.382;2023-08-01T06:53:05;20.30;99.90
28520;DHT22;15732;48.534;20.382;2023-08-01T06:55:32;20.40;99.90
28520;DHT22;15732;48.534;20.382;2023-08-01T06:58:04;20.60;99.90
28520;DHT22;15732;48.534;20.382;2023-08-01T07:00:31;20.90;99.90
28520;DHT22;15732;48.534;20.382;2023-08-01T07:03:02;21.10;99.90
28520;DHT22;15732;48.534;20.382;2023-08-01T07:05:29;21.30;99.90
28520;DHT22;15732;48.534;20.382;2023-08-01T07:07:59;21.40;99.90
28520;DHT22;15732;48.534;20.382;2023-08-01T07:10:34;21.70;99.90
28520;DHT22;15732;48.534;20.382;2023-08-01T07:13:02;21.70;99.90
28520;DHT22;15732;48.534;20.382;2023-08-01T07:15:32;21.90;99.90
28520;DHT22;15732;48.534;20.382;2023-08-01T07:17:59;22.10;99.90
28520;DHT22;15732;48.534;20.382;2023-08-01T07:20:31;22.30;99.90
28520;DHT22;15732;48.534;20.382;2023-08-01T07:23:02;22.50;99.90
28520;DHT22;15732;48.534;20.382;2023-08-01T07:25:29;22.70;99.90
28520;DHT22;15732;48.534;20.382;2023-08-01T07:27:57;22.80;99.90
28520;DHT22;15732;48.534;20.382;2023-08-01T07:30:24;22.90;99.90
28520;DHT22;15732;48.534;20.382;2023-08-01T07:32:51;23.10;99.90
28520;DHT22;15732;48.534;20.382;2023-08-01T07:35:19;23.30;99.90
28520;DHT22;15732;48.534;20.382;2023-08-01T07:37:46;23.40;99.90
28520;DHT22;15732;48.534;20.382;2023-08-01T07:40:13;23.40;99.90
28520;DHT22;15732;48.534;20.382;2023-08-01T07:42:41;23.40;99.90
28520;DHT22;15732;48.534;20.382;2023-08-01T07:45:12;23.40;99.90
28520;DHT22;15732;48.534;20.382;2023-08-01T07:47:39;23.50;99.90
28520;DHT22;15732;48.534;20.382;2023-08-01T07:50:07;23.60;99.90
28520;DHT22;15732;48.534;20.382;2023-08-01T07:52:35;23.70;99.90
28520;DHT22;15732;48.534;20.382;2023-08-01T07:55:03;23.80;99.90
28520;DHT22;15732;48.534;20.382;2023-08-01T07:57:32;23.90;99.90
28520;DHT22;15732;48.534;20.382;2023-08-01T07:59:59;24.00;99.90
28520;DHT22;15732;48.534;20.382;2023-08-01T08:02:26;24.10;99.90
28520;DHT22;15732;48.534;20.382;2023-08-01T08:04:54;24.20;99.90
28520;DHT22;15732;48.534;20.382;2023-08-01T08:07:21;24.20;99.90
28520;DHT22;15732;48.534;20.382;2023-08-01T08:09:52;24.30;99.90
28520;DHT22;15732;48.534;20.382;2023-08-01T08:12:22;24.30;99.90
28520;DHT22;15732;48.534;20.382;2023-08-01T08:14:49;24.40;99.90
28520;DHT22;15732;48.534;20.382;2023-08-01T08:17:16;24.40;99.90
28520;DHT22;15732;48.534;20.382;2023-08-01T08:19:44;24.50;99.90
28520;DHT22;15732;48.534;20.382;2023-08-01T08:22:12;24.60;99.90
28520;DHT22;15732;48.534;20.382;2023-08-01T08:24:39;24.70;99.90
28520;DHT22;15732;48.534;20.382;2023-08-01T08:27:06;24.70;99.90
28520;DHT22;15732;48.534;20.382;2023-08-01T08:29:38;24.70;99.90
28520;DHT22;15732;48.534;20.382;2023-08-01T08:32:09;24.70;99.90
28520;DHT22;15732;48.534;20.382;2023-08-01T08:34:36;24.70;99.90
28520;DHT22;15732;48.534;20.382;2023-08-01T08:37:08;24.60;99.90
28520;DHT22;15732;48.534;20.382;2023-08-01T08:39:35;24.50;99.90
28520;DHT22;15732;48.534;20.382;2023-08-01T08:42:03;24.60;99.90
28520;DHT22;15732;48.534;20.382;2023-08-01T08:44:34;24.70;99.90
28520;DHT22;15732;48.534;20.382;2023-08-01T08:47:06;24.80;99.90
28520;DHT22;15732;48.534;20.382;2023-08-01T08:49:34;24.80;99.90
28520;DHT22;15732;48.534;20.382;2023-08-01T08:52:02;24.80;99.90
28520;DHT22;15732;48.534;20.382;2023-08-01T08:54:31;24.90;99.90
28520;DHT22;15732;48.534;20.382;2023-08-01T08:57:07;24.90;99.90
28520;DHT22;15732;48.534;20.382;2023-08-01T08:59:34;25.00;99.90
28520;DHT22;15732;48.534;20.382;2023-08-01T09:02:03;25.10;99.90
28520;DHT22;15732;48.534;20.382;2023-08-01T09:04:31;25.10;99.90
28520;DHT22;15732;48.534;20.382;2023-08-01T09:07:00;25.20;99.90
28520;DHT22;15732;48.534;20.382;2023-08-01T09:09:28;25.30;99.90
28520;DHT22;15732;48.534;20.382;2023-08-01T09:11:54;25.30;99.90
28520;DHT22;15732;48.534;20.382;2023-08-01T09:14:23;25.40;99.90
28520;DHT22;15732;48.534;20.382;2023-08-01T09:16:53;25.40;99.90
28520;DHT22;15732;48.534;20.382;2023-08-01T09:19:23;25.30;99.90
28520;DHT22;15732;48.534;20.382;2023-08-01T09:21:50;25.30;99.90
28520;DHT22;15732;48.534;20.382;2023-08-01T09:24:19;25.20;99.90
28520;DHT22;15732;48.534;20.382;2023-08-01T09:26:49;25.10;99.90
28520;DHT22;15732;48.534;20.382;2023-08-01T09:29:17;25.00;99.90
28520;DHT22;15732;48.534;20.382;2023-08-01T09:31:44;24.90;99.90
28520;DHT22;15732;48.534;20.382;2023-08-01T09:34:25;24.90;99.90
28520;DHT22;15732;48.534;20.382;2023-08-01T09:36:58;24.90;99.90
28520;DHT22;15732;48.534;20.382;2023-08-01T09:39:26;24.90;99.90
28520;DHT22;15732;48.534;20.382;2023-08-01T09:42:00;25.00;99.90
28520;DHT22;15732;48.534;20.382;2023-08-01T09:44:33;25.10;99.90
28520;DHT22;15732;48.534;20.382;2023-08-01T09:47:05;25.10;99.90
28520;DHT22;15732;48.534;20.382;2023-08-01T09:49:35;25.00;99.90
28520;DHT22;15732;48.534;20.382;2023-08-01T09:52:04;25.00;99.90
28520;DHT22;15732;48.534;20.382;2023-08-01T09:54:32;25.10;99.90
28520;DHT22;15732;48.534;20.382;2023-08-01T09:57:04;25.10;99.90
28520;DHT22;15732;48.534;20.382;2023-08-01T09:59:33;25.10;99.90
28520;DHT22;15732;48.534;20.382;2023-08-01T10:02:01;25.20;99.90
28520;DHT22;15732;48.534;20.382;2023-08-01T10:04:32;25.30;99.90
28520;DHT22;15732;48.534;20.382;2023-08-01T10:07:07;25.40;99.90
28520;DHT22;15732;48.534;20.382;2023-08-01T10:09:34;25.50;99.90
28520;DHT22;15732;48.534;20.382;2023-08-01T10:12:02;25.50;99.90
28520;DHT22;15732;48.534;20.382;2023-08-01T10:14:32;25.50;99.90
28520;DHT22;15732;48.534;20.382;2023-08-01T10:17:00;25.50;99.90
28520;DHT22;15732;48.534;20.382;2023-08-01T10:19:32;25.50;99.90
28520;DHT22;15732;48.534;20.382;2023-08-01T10:22:00;25.60;99.90
28520;DHT22;15732;48.534;20.382;2023-08-01T10:24:31;25.50;99.90
28520;DHT22;15732;48.534;20.382;2023-08-01T10:27:20;25.50;99.90
28520;DHT22;15732;48.534;20.382;2023-08-01T10:29:57;25.50;99.90
28520;DHT22;15732;48.534;20.382;2023-08-01T10:32:39;25.60;99.90
28520;DHT22;15732;48.534;20.382;2023-08-01T10:35:07;25.60;99.90
28520;DHT22;15732;48.534;20.382;2023-08-01T10:37:44;25.70;99.90
28520;DHT22;15732;48.534;20.382;2023-08-01T10:40:14;25.70;99.90
28520;DHT22;15732;48.534;20.382;2023-08-01T10:42:43;25.80;99.90
28520;DHT22;15732;48.534;20.382;2023-08-01T10:45:41;25.90;99.90
28520;DHT22;15732;48.534;20.382;2023-08-01T10:48:12;26.00;99.90
28520;DHT22;15732;48.534;20.382;2023-08-01T10:50:40;25.90;99.90
28520;DHT22;15732;48.534;20.382;2023-08-01T10:53:09;26.00;99.90
28520;DHT22;15732;48.534;20.382;2023-08-01T10:55:41;26.00;99.90
28520;DHT22;15732;48.534;20.382;2023-08-01T10:58:11;26.10;99.90
28520;DHT22;15732;48.534;20.382;2023-08-01T11:00:38;26.10;99.90
28520;DHT22;15732;48.534;20.382;2023-08-01T11:03:05;26.00;99.90
28520;DHT22;15732;48.534;20.382;2023-08-01T11:05:32;25.90;99.90
28520;DHT22;15732;48.534;20.382;2023-08-01T11:08:01;25.90;99.90
28520;DHT22;15732;48.534;20.382;2023-08-01T11:10:31;25.80;99.90
28520;DHT22;15732;48.534;20.382;2023-08-01T11:13:02;25.80;99.90
28520;DHT22;15732;48.534;20.382;2023-08-01T11:15:30;25.80;99.90
28520;DHT22;15732;48.534;20.382;2023-08-01T11:17:57;25.80;99.90
28520;DHT22;15732;48.534;20.382;2023-08-01T11:20:28;25.70;99.90
28520;DHT22;15732;48.534;20.382;2023-08-01T11:23:00;25.70;99.90
28520;DHT22;15732;48.534;20.382;2023-08-01T11:25:40;25.70;99.90
28520;DHT22;15732;48.534;20.382;2023-08-01T11:28:10;25.70;99.90
28520;DHT22;15732;48.534;20.382;2023-08-01T11:30:41;25.70;99.90
28520;DHT22;15732;48.534;20.382;2023-08-01T11:33:17;25.70;99.90
28520;DHT22;15732;48.534;20.382;2023-08-01T11:36:05;25.80;99.90
28520;DHT22;15732;48.534;20.382;2023-08-01T11:38:36;25.80;99.90
28520;DHT22;15732;48.534;20.382;2023-08-01T11:41:05;25.80;99.90
28520;DHT22;15732;48.534;20.382;2023-08-01T11:43:41;25.70;99.90
28520;DHT22;15732;48.534;20.382;2023-08-01T11:46:13;25.80;99.90
28520;DHT22;15732;48.534;20.382;2023-08-01T11:48:45;25.80;99.90
28520;DHT22;15732;48.534;20.382;2023-08-01T11:51:17;25.90;99.90
28520;DHT22;15732;48.534;20.382;2023-08-01T11:53:44;25.90;99.90
28520;DHT22;15732;48.534;20.382;2023-08-01T11:56:20;25.90;99.90
28520;DHT22;15732;48.534;20.382;2023-08-01T11:58:48;25.80;99.90
28520;DHT22;15732;48.534;20.382;2023-08-01T12:01:15;25.80;99.90
28520;DHT22;15732;48.534;20.382;2023-08-01T12:03:47;25.80;99.90
28520;DHT22;15732;48.534;20.382;2023-08-01T12:06:21;25.80;99.90
28520;DHT22;15732;48.534;20.382;2023-08-01T12:08:50;25.70;99.90
28520;DHT22;15732;48.534;20.382;2023-08-01T12:11:22;25.70;99.90
28520;DHT22;15732;48.534;20.382;2023-08-01T12:14:08;25.70;99.90
28520;DHT22;15732;48.534;20.382;2023-08-01T12:16:40;25.70;99.90
28520;DHT22;15732;48.534;20.382;2023-08-01T12:19:08;25.70;99.90
28520;DHT22;15732;48.534;20.382;2023-08-01T12:21:36;25.80;99.90
28520;DHT22;15732;48.534;20.382;2023-08-01T12:24:06;25.80;99.90
28520;DHT22;15732;48.534;20.382;2023-08-01T12:26:34;25.80;99.90
28520;DHT22;15732;48.534;20.382;2023-08-01T12:29:01;25.90;99.90
28520;DHT22;15732;48.534;20.382;2023-08-01T12:31:28;25.90;99.90
28520;DHT22;15732;48.534;20.382;2023-08-01T12:33:55;25.90;99.90
28520;DHT22;15732;48.534;20.382;2023-08-01T12:36:22;25.90;99.90
28520;DHT22;15732;48.534;20.382;2023-08-01T12:38:50;25.80;99.90
28520;DHT22;15732;48.534;20.382;2023-08-01T12:41:17;25.80;99.90
28520;DHT22;15732;48.534;20.382;2023-08-01T12:43:44;25.80;99.90
28520;DHT22;15732;48.534;20.382;2023-08-01T12:46:11;25.80;99.90
28520;DHT22;15732;48.534;20.382;2023-08-01T12:48:38;25.80;99.90
28520;DHT22;15732;48.534;20.382;2023-08-01T12:51:06;25.90;99.90
28520;DHT22;15732;48.534;20.382;2023-08-01T12:53:33;25.90;99.90
28520;DHT22;15732;48.534;20.382;2023-08-01T12:56:00;25.80;99.90
28520;DHT22;15732;48.534;20.382;2023-08-01T12:58:32;25.90;99.90
28520;DHT22;15732;48.534;20.382;2023-08-01T13:01:01;25.90;99.90
28520;DHT22;15732;48.534;20.382;2023-08-01T13:03:28;25.90;99.90
28520;DHT22;15732;48.534;20.382;2023-08-01T13:06:00;25.90;99.90
28520;DHT22;15732;48.534;20.382;2023-08-01T13:08:27;25.90;99.90
28520;DHT22;15732;48.534;20.382;2023-08-01T13:10:55;25.90;99.90
28520;DHT22;15732;48.534;20.382;2023-08-01T13:13:23;25.90;99.90
28520;DHT22;15732;48.534;20.382;2023-08-01T13:15:50;25.90;99.90
28520;DHT22;15732;48.534;20.382;2023-08-01T13:18:18;25.90;99.90
28520;DHT22;15732;48.534;20.382;2023-08-01T13:20:49;25.90;99.90
28520;DHT22;15732;48.534;20.382;2023-08-01T13:23:16;25.90;99.90
28520;DHT22;15732;48.534;20.382;2023-08-01T13:25:48;25.90;99.90
28520;DHT22;15732;48.534;20.382;2023-08-01T13:28:16;25.90;99.90
28520;DHT22;15732;48.534;20.382;2023-08-01T13:30:47;25.90;99.90
28520;DHT22;15732;48.534;20.382;2023-08-01T13:33:18;25.90;99.90
28520;DHT22;15732;48.534;20.382;2023-08-01T13:35:52;25.90;99.90
28520;DHT22;15732;48.534;20.382;2023-08-01T13:38:27;25.90;99.90
28520;DHT22;15732;48.534;20.382;2023-08-01T13:41:01;25.90;99.90
28520;DHT22;15732;48.534;20.382;2023-08-01T13:43:32;25.90;99.90
28520;DHT22;15732;48.534;20.382;2023-08-01T13:45:59;25.90;99.90
28520;DHT22;15732;48.534;20.382;2023-08-01T13:48:30;25.90;99.90
28520;DHT22;15732;48.534;20.382;2023-08-01T13:51:02;25.80;99.90
28520;DHT22;15732;48.534;20.382;2023-08-01T13:53:33;25.80;99.90
28520;DHT22;15732;48.534;20.382;2023-08-01T13:56:00;25.80;99.90
28520;DHT22;15732;48.534;20.382;2023-08-01T13:58:27;25.80;99.90
28520;DHT22;15732;48.534;20.382;2023-08-01T14:01:05;25.80;99.90
28520;DHT22;15732;48.534;20.382;2023-08-01T14:03:38;25.80;99.90
28520;DHT22;15732;48.534;20.382;2023-08-01T14:06:06;25.80;99.90
28520;DHT22;15732;48.534;20.382;2023-08-01T14:08:33;25.80;99.90
28520;DHT22;15732;48.534;20.382;2023-08-01T14:11:01;25.80;99.90
28520;DHT22;15732;48.534;20.382;2023-08-01T14:13:28;25.80;99.90
28520;DHT22;15732;48.534;20.382;2023-08-01T14:15:55;25.80;99.90
28520;DHT22;15732;48.534;20.382;2023-08-01T14:18:26;25.90;99.90
28520;DHT22;15732;48.534;20.382;2023-08-01T14:20:53;25.90;99.90
28520;DHT22;15732;48.534;20.382;2023-08-01T14:23:21;25.90;99.90
28520;DHT22;15732;48.534;20.382;2023-08-01T14:25:48;25.90;99.90
28520;DHT22;15732;48.534;20.382;2023-08-01T14:28:15;25.80;99.90
28520;DHT22;15732;48.534;20.382;2023-08-01T14:30:42;25.80;99.90
28520;DHT22;15732;48.534;20.382;2023-08-01T14:33:10;25.80;99.90
28520;DHT22;15732;48.534;20.382;2023-08-01T14:35:41;25.80;99.90
28520;DHT22;15732;48.534;20.382;2023-08-01T14:38:09;25.80;99.90
28520;DHT22;15732;48.534;20.382;2023-08-01T14:40:36;25.80;99.90
28520;DHT22;15732;48.534;20.382;2023-08-01T14:43:05;25.80;99.90
28520;DHT22;15732;48.534;20.382;2023-08-01T14:45:36;25.80;99.90
28520;DHT22;15732;48.534;20.382;2023-08-01T14:48:03;25.80;99.90
28520;DHT22;15732;48.534;20.382;2023-08-01T14:50:31;25.80;99.90
28520;DHT22;15732;48.534;20.382;2023-08-01T14:53:02;25.80;99.90
28520;DHT22;15732;48.534;20.382;2023-08-01T14:55:30;25.70;99.90
28520;DHT22;15732;48.534;20.382;2023-08-01T14:58:01;25.70;99.90
28520;DHT22;15732;48.534;20.382;2023-08-01T15:00:28;25.70;99.90
28520;DHT22;15732;48.534;20.382;2023-08-01T15:02:55;25.70;99.90
28520;DHT22;15732;48.534;20.382;2023-08-01T15:05:24;25.70;99.90
28520;DHT22;15732;48.534;20.382;2023-08-01T15:07:51;25.70;99.90
28520;DHT22;15732;48.534;20.382;2023-08-01T15:10:19;25.70;99.90
28520;DHT22;15732;48.534;20.382;2023-08-01T15:12:46;25.70;99.90
28520;DHT22;15732;48.534;20.382;2023-08-01T15:15:17;25.70;99.90
28520;DHT22;15732;48.534;20.382;2023-08-01T15:17:45;25.70;99.90
28520;DHT22;15732;48.534;20.382;2023-08-01T15:20:12;25.70;99.90
28520;DHT22;15732;48.534;20.382;2023-08-01T15:22:39;25.60;99.90
28520;DHT22;15732;48.534;20.382;2023-08-01T15:25:10;25.60;99.90
28520;DHT22;15732;48.534;20.382;2023-08-01T15:27:38;25.70;99.90
28520;DHT22;15732;48.534;20.382;2023-08-01T15:30:09;25.60;99.90